createdAt,value
2019-06-01T00:00:46.256Z,102252.30
2019-06-01T00:03:17.641Z,102247.10
2019-06-01T00:05:47.113Z,102246.89
2019-06-01T00:08:16.391Z,102240.13
2019-06-01T00:10:45.785Z,102240.13
2019-06-01T00:13:15.156Z,102243.11
2019-06-01T00:15:44.508Z,102244.11
2019-06-01T00:18:13.883Z,102239.31
2019-06-01T00:20:44.298Z,102243.30
2019-06-01T00:23:13.670Z,102239.52
2019-06-01T00:25:43.101Z,102229.92
2019-06-01T00:28:12.460Z,102232.34
2019-06-01T00:30:41.909Z,102226.72
2019-06-01T00:33:11.205Z,102220.53
2019-06-01T00:35:41.336Z,102224.73
2019-06-01T00:38:10.747Z,102221.14
2019-06-01T00:40:40.212Z,102218.53
2019-06-01T00:43:09.561Z,102221.94
2019-06-01T00:45:38.875Z,102213.56
2019-06-01T00:48:10.130Z,102216.95
2019-06-01T00:50:39.679Z,102214.34
2019-06-01T00:53:09.137Z,102219.36
2019-06-01T00:55:38.519Z,102230.55
2019-06-01T00:58:07.807Z,102224.53
2019-06-01T01:00:43.629Z,102233.33
2019-06-01T01:03:08.160Z,102221.36
2019-06-01T01:05:37.477Z,102223.34
2019-06-01T01:08:06.975Z,102221.73
2019-06-01T01:10:36.342Z,102222.14
2019-06-01T01:13:09.982Z,102225.72
2019-06-01T01:15:39.378Z,102225.72
2019-06-01T01:18:09.339Z,102229.32
2019-06-01T01:20:38.882Z,102225.52
2019-06-01T01:23:08.542Z,102225.34
2019-06-01T01:25:37.964Z,102226.52
2019-06-01T01:28:07.281Z,102225.92
2019-06-01T01:30:36.655Z,102225.33
2019-06-01T01:33:06.039Z,102218.55
2019-06-01T01:35:35.361Z,102227.12
2019-06-01T01:38:05.014Z,102228.94
2019-06-01T01:40:34.338Z,102227.33
2019-06-01T01:43:03.654Z,102226.33
2019-06-01T01:45:32.995Z,102230.31
2019-06-01T01:48:02.331Z,102228.52
2019-06-01T01:50:32.614Z,102221.53
2019-06-01T01:53:03.333Z,102222.14
2019-06-01T01:55:32.869Z,102229.13
2019-06-01T01:58:02.177Z,102227.92
2019-06-01T02:00:42.729Z,102224.73
2019-06-01T02:03:12.164Z,102226.33
2019-06-01T02:05:41.765Z,102222.13
2019-06-01T02:08:11.217Z,102225.72
2019-06-01T02:10:40.615Z,102224.53
2019-06-01T02:13:09.954Z,102215.35
2019-06-01T02:15:40.500Z,102212.16
2019-06-01T02:18:09.789Z,102215.34
2019-06-01T02:20:39.256Z,102212.34
2019-06-01T02:23:08.617Z,102207.95
2019-06-01T02:25:37.989Z,102211.54
2019-06-01T02:28:07.473Z,102210.96
2019-06-01T02:30:36.868Z,102206.77
2019-06-01T02:33:06.137Z,102210.56
2019-06-01T02:35:35.514Z,102209.56
2019-06-01T02:38:05.716Z,102208.75
2019-06-01T02:40:35.692Z,102199.55
2019-06-01T02:43:06.781Z,102198.98
2019-06-01T02:45:36.547Z,102192.77
2019-06-01T02:48:06.573Z,102193.56
2019-06-01T02:50:36.147Z,102199.95
2019-06-01T02:53:07.180Z,102196.76
2019-06-01T02:55:36.455Z,102200.74
2019-06-01T02:58:06.672Z,102205.73
2019-06-01T03:00:48.522Z,102205.70
2019-06-01T03:03:18.473Z,102208.08
2019-06-01T03:05:48.902Z,102206.50
2019-06-01T03:08:19.582Z,102204.47
2019-06-01T03:10:50.383Z,102203.28
2019-06-01T03:13:20.365Z,102206.47
2019-06-01T03:15:52.155Z,102205.66
2019-06-01T03:18:22.508Z,102215.05
2019-06-01T03:20:52.727Z,102214.04
2019-06-01T03:23:24.308Z,102215.02
2019-06-01T03:25:54.365Z,102218.20
2019-06-01T03:28:25.374Z,102223.22
2019-06-01T03:30:54.755Z,102222.79
2019-06-01T03:33:24.037Z,102226.77
2019-06-01T03:35:55.089Z,102229.95
2019-06-01T03:38:24.709Z,102226.16
2019-06-01T03:40:54.090Z,102220.97
2019-06-01T03:43:23.722Z,102223.16
2019-06-01T03:45:53.014Z,102222.40
2019-06-01T03:48:22.333Z,102221.39
2019-06-01T03:50:51.941Z,102223.80
2019-06-01T03:53:21.243Z,102224.58
2019-06-01T03:55:50.551Z,102226.77
2019-06-01T03:58:21.479Z,102224.80
2019-06-01T04:00:50.788Z,102220.78
2019-06-01T04:03:20.079Z,102217.41
2019-06-01T04:05:49.457Z,102211.83
2019-06-01T04:08:18.834Z,102207.27
2019-06-01T04:10:48.155Z,102213.06
2019-06-01T04:13:17.434Z,102210.89
2019-06-01T04:15:46.734Z,102212.11
2019-06-01T04:18:16.164Z,102205.33
2019-06-01T04:20:45.524Z,102212.12
2019-06-01T04:23:14.877Z,102211.34
2019-06-01T04:25:44.285Z,102212.14
2019-06-01T04:28:13.660Z,102212.95
2019-06-01T04:30:42.987Z,102208.17
2019-06-01T04:33:13.251Z,102215.14
2019-06-01T04:35:43.759Z,102217.73
2019-06-01T04:38:13.477Z,102215.11
2019-06-01T04:40:42.847Z,102218.50
2019-06-01T04:43:12.276Z,102216.87
2019-06-01T04:45:41.833Z,102219.44
2019-06-01T04:48:11.142Z,102225.02
2019-06-01T04:50:40.463Z,102224.19
2019-06-01T04:53:11.808Z,102229.98
2019-06-01T04:55:40.807Z,102231.54
2019-06-01T04:58:11.135Z,102233.89
2019-06-01T05:00:40.641Z,102240.59
2019-06-01T05:03:10.829Z,102233.73
2019-06-01T05:05:41.226Z,102232.45
2019-06-01T05:08:12.569Z,102237.33
2019-06-01T05:10:41.734Z,102234.97
2019-06-01T05:13:11.520Z,102240.37
2019-06-01T05:15:40.830Z,102236.08
2019-06-01T05:18:10.132Z,102234.73
2019-06-01T05:20:39.514Z,102233.86
2019-06-01T05:23:10.571Z,102239.16
2019-06-01T05:25:40.249Z,102245.06
2019-06-01T05:28:09.561Z,102242.02
2019-06-01T05:30:38.847Z,102253.59
2019-06-01T05:33:22.439Z,102253.08
2019-06-01T05:35:39.159Z,102261.28
2019-06-01T05:38:08.471Z,102255.99
2019-06-01T05:40:38.007Z,102266.75
2019-06-01T05:43:10.805Z,102269.67
2019-06-01T05:45:38.442Z,102274.84
2019-06-01T05:48:07.798Z,102265.55
2019-06-01T05:50:38.139Z,102260.87
2019-06-01T05:53:07.525Z,102257.05
2019-06-01T05:55:36.825Z,102252.80
2019-06-01T05:58:06.125Z,102256.26
2019-06-01T06:00:40.768Z,102250.23
2019-06-01T06:03:12.888Z,102253.20
2019-06-01T06:05:41.228Z,102258.84
2019-06-01T06:08:12.538Z,102264.11
2019-06-01T06:10:41.536Z,102266.12
2019-06-01T06:13:11.201Z,102265.38
2019-06-01T06:15:40.602Z,102264.31
2019-06-01T06:18:10.173Z,102259.55
2019-06-01T06:20:39.481Z,102266.33
2019-06-01T06:23:08.815Z,102263.66
2019-06-01T06:25:40.959Z,102266.14
2019-06-01T06:28:09.205Z,102258.91
2019-06-01T06:30:39.755Z,102260.02
2019-06-01T06:33:09.044Z,102261.59
2019-06-01T06:35:38.431Z,102258.42
2019-06-01T06:38:07.860Z,102263.63
2019-06-01T06:40:37.191Z,102263.08
2019-06-01T06:43:18.680Z,102269.59
2019-06-01T06:45:37.817Z,102266.04
2019-06-01T06:48:07.120Z,102272.55
2019-06-01T06:50:36.494Z,102264.93
2019-06-01T06:53:06.125Z,102268.10
2019-06-01T06:55:36.044Z,102268.75
2019-06-01T06:58:05.491Z,102262.65
2019-06-01T07:00:34.809Z,102256.78
2019-06-01T07:03:04.123Z,102260.58
2019-06-01T07:05:33.429Z,102264.72
2019-06-01T07:08:02.804Z,102262.25
2019-06-01T07:10:32.112Z,102256.88
2019-06-01T07:13:01.410Z,102263.89
2019-06-01T07:15:31.765Z,102261.70
2019-06-01T07:18:01.136Z,102256.06
2019-06-01T07:20:30.399Z,102256.16
2019-06-01T07:22:59.720Z,102261.46
2019-06-01T07:25:29.085Z,102261.98
2019-06-01T07:27:58.388Z,102265.39
2019-06-01T07:30:28.464Z,102261.08
2019-06-01T07:32:57.813Z,102261.73
2019-06-01T07:35:28.371Z,102260.11
2019-06-01T07:37:57.869Z,102263.49
2019-06-01T07:40:27.195Z,102266.78
2019-06-01T07:42:56.522Z,102272.55
2019-06-01T07:45:26.926Z,102265.59
2019-06-01T07:47:56.365Z,102265.43
2019-06-01T07:50:25.965Z,102270.27
2019-06-01T07:52:55.358Z,102276.17
2019-06-01T07:55:25.489Z,102276.44
2019-06-01T07:57:54.987Z,102276.08
2019-06-01T08:00:25.611Z,102274.31
2019-06-01T08:02:55.494Z,102270.42
2019-06-01T08:05:26.435Z,102272.52
2019-06-01T08:07:55.793Z,102266.16
2019-06-01T08:10:26.521Z,102264.19
2019-06-01T08:12:57.139Z,102261.88
2019-06-01T08:15:28.045Z,102266.88
2019-06-01T08:17:58.686Z,102270.36
2019-06-01T08:20:28.625Z,102269.84
2019-06-01T08:22:59.300Z,102259.07
2019-06-01T08:25:28.724Z,102261.31
2019-06-01T08:27:58.348Z,102262.53
2019-06-01T08:30:28.623Z,102262.84
2019-06-01T08:32:58.045Z,102272.11
2019-06-01T08:35:27.385Z,102272.91
2019-06-01T08:37:56.670Z,102270.77
2019-06-01T08:40:27.303Z,102271.92
2019-06-01T08:42:56.775Z,102270.53
2019-06-01T08:45:26.068Z,102272.63
2019-06-01T08:47:55.597Z,102272.98
2019-06-01T08:50:25.707Z,102267.84
2019-06-01T08:52:56.043Z,102264.73
2019-06-01T08:55:26.087Z,102258.20
2019-06-01T08:57:55.506Z,102259.31
2019-06-01T09:00:26.225Z,102252.45
2019-06-01T09:02:55.740Z,102250.77
2019-06-01T09:05:26.825Z,102254.70
2019-06-01T09:07:56.078Z,102253.94
2019-06-01T09:10:25.394Z,102254.33
2019-06-01T09:12:54.694Z,102259.18
2019-06-01T09:15:25.477Z,102255.39
2019-06-01T09:17:54.930Z,102257.06
2019-06-01T09:20:25.412Z,102257.33
2019-06-01T09:22:56.484Z,102257.70
2019-06-01T09:25:25.797Z,102254.39
2019-06-01T09:27:55.276Z,102250.98
2019-06-01T09:30:25.889Z,102255.82
2019-06-01T09:32:55.251Z,102254.63
2019-06-01T09:35:46.480Z,102250.25
2019-06-01T09:37:56.353Z,102251.69
2019-06-01T09:40:27.318Z,102249.10
2019-06-01T09:42:56.555Z,102253.85
2019-06-01T09:45:25.866Z,102260.09
2019-06-01T09:47:55.383Z,102262.32
2019-06-01T09:50:24.716Z,102261.59
2019-06-01T09:52:54.032Z,102253.77
2019-06-01T09:55:23.326Z,102256.80
2019-06-01T09:57:52.616Z,102258.52
2019-06-01T10:00:22.079Z,102251.71
2019-06-01T10:02:51.401Z,102250.27
2019-06-01T10:05:20.763Z,102250.15
2019-06-01T10:07:50.034Z,102254.11
2019-06-01T10:10:19.477Z,102255.52
2019-06-01T10:12:48.943Z,102258.76
2019-06-01T10:15:18.254Z,102253.29
2019-06-01T10:17:47.530Z,102253.29
2019-06-01T10:20:17.280Z,102245.82
2019-06-01T10:22:46.589Z,102246.17
2019-06-01T10:25:16.145Z,102242.83
2019-06-01T10:27:45.445Z,102245.06
2019-06-01T10:30:16.379Z,102247.23
2019-06-01T10:32:45.838Z,102252.97
2019-06-01T10:35:15.447Z,102242.84
2019-06-01T10:37:44.771Z,102246.39
2019-06-01T10:40:14.377Z,102248.33
2019-06-01T10:42:43.667Z,102246.24
2019-06-01T10:45:13.265Z,102243.89
2019-06-01T10:47:42.593Z,102233.97
2019-06-01T10:50:13.052Z,102240.45
2019-06-01T10:52:42.693Z,102233.33
2019-06-01T10:55:12.314Z,102227.84
2019-06-01T10:57:42.812Z,102222.28
2019-06-01T11:00:12.939Z,102222.50
2019-06-01T11:02:43.330Z,102215.88
2019-06-01T11:05:13.053Z,102220.65
2019-06-01T11:07:43.116Z,102223.54
2019-06-01T11:10:13.129Z,102218.26
2019-06-01T11:12:43.266Z,102223.30
2019-06-01T11:15:12.829Z,102209.64
2019-06-01T11:17:43.217Z,102211.23
2019-06-01T11:20:14.259Z,102211.18
2019-06-01T11:22:43.744Z,102211.42
2019-06-01T11:25:13.271Z,102213.19
2019-06-01T11:27:44.038Z,102207.07
2019-06-01T11:30:13.950Z,102203.69
2019-06-01T11:32:44.940Z,102201.12
2019-06-01T11:35:14.764Z,102200.95
2019-06-01T11:37:44.555Z,102193.36
2019-06-01T11:40:14.191Z,102198.39
2019-06-01T11:42:44.950Z,102194.79
2019-06-01T11:45:14.607Z,102190.16
2019-06-01T11:47:44.845Z,102185.35
2019-06-01T11:50:15.772Z,102178.52
2019-06-01T11:52:45.508Z,102184.93
2019-06-01T11:55:14.936Z,102183.23
2019-06-01T11:57:44.303Z,102174.53
2019-06-01T12:00:14.848Z,102175.03
2019-06-01T12:02:44.188Z,102169.97
2019-06-01T12:05:13.893Z,102175.02
2019-06-01T12:07:43.905Z,102166.07
2019-06-01T12:10:16.685Z,102161.57
2019-06-01T12:12:46.507Z,102154.39
2019-06-01T12:15:15.860Z,102156.36
2019-06-01T12:17:45.302Z,102153.88
2019-06-01T12:20:14.834Z,102153.00
2019-06-01T12:22:45.144Z,102143.30
2019-06-01T12:25:14.837Z,102145.84
2019-06-01T12:27:44.139Z,102144.50
2019-06-01T12:30:13.920Z,102150.20
2019-06-01T12:32:44.069Z,102141.44
2019-06-01T12:35:13.897Z,102135.00
2019-06-01T12:38:02.061Z,102131.94
2019-06-01T12:40:16.085Z,102132.31
2019-06-01T12:42:45.908Z,102127.16
2019-06-01T12:45:22.836Z,102127.45
2019-06-01T12:47:55.224Z,102118.69
2019-06-01T12:50:22.124Z,102118.95
2019-06-01T12:52:52.767Z,102117.81
2019-06-01T12:55:22.171Z,102116.68
2019-06-01T12:57:52.556Z,102107.63
2019-06-01T13:00:22.035Z,102109.20
2019-06-01T13:03:03.654Z,102105.62
2019-06-01T13:05:23.638Z,102097.45
2019-06-01T13:08:01.830Z,102090.02
2019-06-01T13:10:24.123Z,102094.45
2019-06-01T13:12:53.594Z,102106.62
2019-06-01T13:15:23.958Z,102101.06
2019-06-01T13:17:53.247Z,102099.20
2019-06-01T13:20:22.535Z,102096.75
2019-06-01T13:22:51.976Z,102092.90
2019-06-01T13:25:21.469Z,102077.05
2019-06-01T13:27:50.763Z,102077.05
2019-06-01T13:30:21.283Z,102083.08
2019-06-01T13:32:50.820Z,102090.06
2019-06-01T13:35:20.336Z,102086.05
2019-06-01T13:37:50.811Z,102080.31
2019-06-01T13:40:20.390Z,102079.44
2019-06-01T13:42:49.694Z,102068.09
2019-06-01T13:45:19.184Z,102071.88
2019-06-01T13:47:49.765Z,102066.92
2019-06-01T13:50:19.323Z,102067.32
2019-06-01T13:52:49.937Z,102065.61
2019-06-01T13:55:19.280Z,102063.77
2019-06-01T13:57:48.569Z,102053.77
2019-06-01T14:00:29.872Z,102054.51
2019-06-01T14:02:53.683Z,102056.31
2019-06-01T14:05:20.069Z,102051.86
2019-06-01T14:07:49.597Z,102044.80
2019-06-01T14:10:20.087Z,102043.16
2019-06-01T14:12:49.492Z,102050.54
2019-06-01T14:15:18.851Z,102045.80
2019-06-01T14:17:48.149Z,102040.84
2019-06-01T14:20:17.776Z,102041.75
2019-06-01T14:22:47.657Z,102043.33
2019-06-01T14:25:17.697Z,102041.41
2019-06-01T14:27:48.137Z,102045.91
2019-06-01T14:30:17.691Z,102043.05
2019-06-01T14:32:48.755Z,102040.37
2019-06-01T14:35:18.169Z,102038.80
2019-06-01T14:37:48.756Z,102031.32
2019-06-01T14:40:18.865Z,102031.24
2019-06-01T14:42:49.040Z,102027.32
2019-06-01T14:45:20.138Z,102023.77
2019-06-01T14:47:49.500Z,102014.58
2019-06-01T14:50:18.808Z,102021.27
2019-06-01T14:52:49.513Z,102012.64
2019-06-01T14:55:18.959Z,102016.42
2019-06-01T14:57:48.601Z,102010.73
2019-06-01T15:00:19.406Z,102007.88
2019-06-01T15:02:49.941Z,101997.13
2019-06-01T15:05:19.401Z,101994.79
2019-06-01T15:07:49.032Z,101995.00
2019-06-01T15:10:19.670Z,101988.14
2019-06-01T15:12:54.566Z,101996.55
2019-06-01T15:15:20.531Z,101994.47
2019-06-01T15:17:49.834Z,101993.16
2019-06-01T15:20:19.246Z,101986.41
2019-06-01T15:22:49.922Z,101979.52
2019-06-01T15:25:19.352Z,101979.56
2019-06-01T15:27:48.860Z,101983.09
2019-06-01T15:30:18.624Z,101986.56
2019-06-01T15:32:47.896Z,101985.80
2019-06-01T15:35:17.260Z,101986.25
2019-06-01T15:37:46.559Z,101971.96
2019-06-01T15:40:16.239Z,101968.84
2019-06-01T15:42:45.790Z,101966.67
2019-06-01T15:45:15.441Z,101969.20
2019-06-01T15:47:44.773Z,101964.91
2019-06-01T15:50:15.941Z,101960.62
2019-06-01T15:52:45.242Z,101953.53
2019-06-01T15:55:14.731Z,101945.05
2019-06-01T15:57:44.083Z,101943.83
2019-06-01T16:00:13.765Z,101949.69
2019-06-01T16:02:43.115Z,101941.20
2019-06-01T16:05:12.866Z,101947.16
2019-06-01T16:07:42.210Z,101942.08
2019-06-01T16:10:11.745Z,101935.48
2019-06-01T16:12:41.189Z,101934.41
2019-06-01T16:15:10.937Z,101929.17
2019-06-01T16:17:40.398Z,101934.63
2019-06-01T16:20:11.880Z,101934.66
2019-06-01T16:22:41.236Z,101924.66
2019-06-01T16:25:10.881Z,101917.70
2019-06-01T16:27:40.173Z,101922.73
2019-06-01T16:30:11.198Z,101917.79
2019-06-01T16:32:40.488Z,101918.56
2019-06-01T16:35:09.789Z,101918.11
2019-06-01T16:37:39.074Z,101922.88
2019-06-01T16:40:10.624Z,101919.45
2019-06-01T16:42:40.386Z,101922.94
2019-06-01T16:45:10.219Z,101920.14
2019-06-01T16:47:39.572Z,101918.80
2019-06-01T16:50:09.683Z,101916.95
2019-06-01T16:52:39.060Z,101913.59
2019-06-01T16:55:09.419Z,101914.09
2019-06-01T16:57:38.783Z,101910.42
2019-06-01T17:00:10.021Z,101908.64
2019-06-01T17:02:39.568Z,101917.89
2019-06-01T17:05:09.350Z,101912.68
2019-06-01T17:07:38.777Z,101911.42
2019-06-01T17:10:25.016Z,101911.42
2019-06-01T17:12:43.182Z,101905.22
2019-06-01T17:15:11.319Z,101906.64
2019-06-01T17:17:40.758Z,101905.88
2019-06-01T17:20:38.248Z,101898.58
2019-06-01T17:23:24.161Z,101906.72
2019-06-01T17:25:38.757Z,101894.38
2019-06-01T17:28:09.247Z,101899.39
2019-06-01T17:30:38.665Z,101895.00
2019-06-01T17:33:08.598Z,101895.85
2019-06-01T17:35:38.042Z,101892.30
2019-06-01T17:38:07.595Z,101889.45
2019-06-01T17:40:41.669Z,101883.88
2019-06-01T17:43:08.910Z,101880.11
2019-06-01T17:45:38.519Z,101881.03
2019-06-01T17:48:24.307Z,101883.23
2019-06-01T17:50:39.030Z,101877.16
2019-06-01T17:53:08.908Z,101881.20
2019-06-01T17:55:40.036Z,101868.06
2019-06-01T17:58:12.198Z,101874.97
2019-06-01T18:00:41.753Z,101871.65
2019-06-01T18:03:12.087Z,101876.72
2019-06-01T18:05:43.046Z,101872.52
2019-06-01T18:08:12.962Z,101867.13
2019-06-01T18:10:53.390Z,101860.44
2019-06-01T18:13:13.706Z,101857.61
2019-06-01T18:15:43.010Z,101863.90
2019-06-01T18:18:12.964Z,101864.92
2019-06-01T18:20:43.657Z,101864.79
2019-06-01T18:23:13.508Z,101860.63
2019-06-01T18:25:44.544Z,101860.50
2019-06-01T18:28:19.020Z,101859.41
2019-06-01T18:30:45.020Z,101857.89
2019-06-01T18:33:14.486Z,101857.54
2019-06-01T18:35:43.815Z,101859.12
2019-06-01T18:38:14.723Z,101858.31
2019-06-01T18:40:44.288Z,101852.45
2019-06-01T18:43:17.117Z,101853.45
2019-06-01T18:45:47.486Z,101852.38
2019-06-01T18:48:17.213Z,101842.49
2019-06-01T18:50:46.994Z,101846.67
2019-06-01T18:53:16.397Z,101845.03
2019-06-01T18:55:45.671Z,101846.17
2019-06-01T18:58:15.048Z,101843.84
2019-06-01T19:00:45.715Z,101834.41
2019-06-01T19:03:15.530Z,101836.16
2019-06-01T19:05:46.121Z,101839.33
2019-06-01T19:08:16.175Z,101835.27
2019-06-01T19:10:47.960Z,101828.34
2019-06-01T19:13:18.124Z,101827.74
2019-06-01T19:15:47.419Z,101823.31
2019-06-01T19:18:17.561Z,101825.67
2019-06-01T19:20:46.962Z,101828.02
2019-06-01T19:23:21.384Z,101825.04
2019-06-01T19:25:48.588Z,101827.54
2019-06-01T19:28:18.047Z,101826.11
2019-06-01T19:30:47.456Z,101826.09
2019-06-01T19:33:19.487Z,101826.39
2019-06-01T19:35:49.456Z,101831.87
2019-06-01T19:38:20.129Z,101832.63
2019-06-01T19:40:51.171Z,101831.95
2019-06-01T19:43:20.943Z,101828.62
2019-06-01T19:45:51.105Z,101824.36
2019-06-01T19:48:20.594Z,101822.10
2019-06-01T19:50:51.765Z,101818.12
2019-06-01T19:53:21.141Z,101828.48
2019-06-01T19:55:51.594Z,101829.10
2019-06-01T19:58:22.258Z,101827.66
2019-06-01T20:00:52.931Z,101825.59
2019-06-01T20:03:23.872Z,101826.98
2019-06-01T20:05:53.286Z,101822.07
2019-06-01T20:08:22.753Z,101817.48
2019-06-01T20:10:52.041Z,101813.67
2019-06-01T20:13:21.526Z,101818.96
2019-06-01T20:15:50.841Z,101816.48
2019-06-01T20:18:20.142Z,101814.08
2019-06-01T20:20:50.019Z,101816.80
2019-06-01T20:23:19.631Z,101817.75
2019-06-01T20:25:49.080Z,101814.78
2019-06-01T20:28:19.547Z,101817.69
2019-06-01T20:30:49.431Z,101815.95
2019-06-01T20:33:20.307Z,101810.56
2019-06-01T20:35:49.792Z,101811.45
2019-06-01T20:38:20.542Z,101810.96
2019-06-01T20:40:50.207Z,101810.41
2019-06-01T20:43:20.817Z,101807.65
2019-06-01T20:45:50.479Z,101807.33
2019-06-01T20:48:21.051Z,101803.48
2019-06-01T20:50:52.074Z,101804.39
2019-06-01T20:53:21.463Z,101804.46
2019-06-01T20:55:50.770Z,101808.84
2019-06-01T20:58:22.898Z,101804.23
2019-06-01T21:00:51.149Z,101802.60
2019-06-01T21:03:21.813Z,101800.09
2019-06-01T21:05:51.234Z,101805.84
2019-06-01T21:08:22.260Z,101799.09
2019-06-01T21:10:52.032Z,101801.64
2019-06-01T21:13:22.283Z,101797.97
2019-06-01T21:15:51.719Z,101796.05
2019-06-01T21:18:22.331Z,101796.29
2019-06-01T21:20:52.105Z,101790.41
2019-06-01T21:23:21.418Z,101784.36
2019-06-01T21:25:52.871Z,101785.63
2019-06-01T21:28:23.649Z,101784.32
2019-06-01T21:30:53.172Z,101788.73
2019-06-01T21:33:26.642Z,101785.00
2019-06-01T21:35:53.529Z,101778.84
2019-06-01T21:38:23.665Z,101783.31
2019-06-01T21:40:53.020Z,101782.22
2019-06-01T21:43:29.744Z,101784.87
2019-06-01T21:45:53.419Z,101786.81
2019-06-01T21:48:23.975Z,101775.97
2019-06-01T21:50:53.655Z,101777.88
2019-06-01T21:53:22.930Z,101778.89
2019-06-01T21:55:53.921Z,101778.89
2019-06-01T21:58:24.453Z,101779.62
2019-06-01T22:00:54.977Z,101779.58
2019-06-01T22:03:25.637Z,101780.44
2019-06-01T22:05:55.268Z,101769.24
2019-06-01T22:08:25.793Z,101773.78
2019-06-01T22:10:55.295Z,101768.14
2019-06-01T22:13:27.108Z,101762.90
2019-06-01T22:15:55.620Z,101756.44
2019-06-01T22:18:25.837Z,101754.83
2019-06-01T22:20:56.374Z,101749.69
2019-06-01T22:23:26.101Z,101749.41
2019-06-01T22:25:55.569Z,101742.75
2019-06-01T22:28:24.856Z,101748.16
2019-06-01T22:30:54.258Z,101748.28
2019-06-01T22:33:24.563Z,101741.69
2019-06-01T22:35:53.916Z,101743.31
2019-06-01T22:38:23.730Z,101732.42
2019-06-01T22:40:53.180Z,101733.38
2019-06-01T22:43:39.283Z,101725.55
2019-06-01T22:45:53.679Z,101727.14
2019-06-01T22:48:22.991Z,101732.15
2019-06-01T22:50:52.274Z,101724.92
2019-06-01T22:53:22.372Z,101730.41
2019-06-01T22:55:51.694Z,101721.59
2019-06-01T22:58:21.316Z,101724.45
2019-06-01T23:00:50.691Z,101722.97
2019-06-01T23:03:20.109Z,101719.14
2019-06-01T23:05:49.495Z,101715.63
2019-06-01T23:08:18.961Z,101711.42
2019-06-01T23:10:48.269Z,101706.35
2019-06-01T23:13:17.552Z,101711.48
2019-06-01T23:15:46.856Z,101700.98
2019-06-01T23:18:16.277Z,101694.89
2019-06-01T23:20:45.753Z,101697.12
2019-06-01T23:23:15.036Z,101693.48
2019-06-01T23:25:44.338Z,101696.30
2019-06-01T23:28:13.637Z,101688.86
2019-06-01T23:30:42.967Z,101689.64
2019-06-01T23:33:12.254Z,101686.31
2019-06-01T23:35:41.579Z,101680.67
2019-06-01T23:38:10.904Z,101670.03
2019-06-01T23:40:40.182Z,101675.48
2019-06-01T23:43:09.525Z,101682.20
2019-06-01T23:45:38.826Z,101679.32
2019-06-01T23:48:08.183Z,101675.62
2019-06-01T23:50:37.664Z,101680.09
2019-06-01T23:53:13.729Z,101667.15
2019-06-01T23:55:38.038Z,101664.97
2019-06-01T23:58:07.358Z,101668.42
